CAL220 RCKH-RCTP
Flight info
| Callsign | CAL220 |
|---|---|
| Flight time | 0h 24m |
| Altitude | 19000 |
| Route | TNN2G TNN TNN1A |
| Aircraft | B77W/H-SDE1E2E3FGHIJ2J3J4J5M1RWXY/LB1D1 |
Departure
| Time | 2026-05-09 05:37 |
|---|---|
| Airport | Kaohsiung International Airport (RCKH) |
Arrival
| Time | 2026-05-09 06:02 |
|---|---|
| Airport | Taiwan Taoyuan International Airport (RCTP) |
| Time | Latitude | Longitude | Altitude | Speed | Heading |
|---|---|---|---|---|---|
| 2026-05-09 05:22 | 22.57333 | 120.33846 | 41 ft | 0 kts | 91° |
| 2026-05-09 05:28 | 22.57333 | 120.33843 | 41 ft | 3 kts | 91° |
| 2026-05-09 05:29 | 22.57332 | 120.33815 | 39 ft | 4 kts | 87° |
| 2026-05-09 05:29 | 22.57330 | 120.33790 | 39 ft | 2 kts | 69° |
| 2026-05-09 05:29 | 22.57324 | 120.33779 | 39 ft | 2 kts | 36° |
| 2026-05-09 05:29 | 22.57314 | 120.33773 | 38 ft | 2 kts | 12° |
| 2026-05-09 05:30 | 22.57303 | 120.33771 | 39 ft | 2 kts | 4° |
| 2026-05-09 05:30 | 22.57291 | 120.33770 | 40 ft | 2 kts | 2° |
| 2026-05-09 05:30 | 22.57287 | 120.33770 | 42 ft | 0 kts | 2° |
| 2026-05-09 05:33 | 22.57299 | 120.33770 | 42 ft | 4 kts | 2° |
| 2026-05-09 05:33 | 22.57333 | 120.33772 | 40 ft | 5 kts | 2° |
| 2026-05-09 05:34 | 22.57375 | 120.33773 | 43 ft | 7 kts | 2° |
| 2026-05-09 05:34 | 22.57427 | 120.33775 | 43 ft | 8 kts | 2° |
| 2026-05-09 05:34 | 22.57466 | 120.33776 | 43 ft | 0 kts | 2° |
| 2026-05-09 05:35 | 22.57497 | 120.33755 | 43 ft | 9 kts | 298° |
| 2026-05-09 05:35 | 22.57486 | 120.33688 | 43 ft | 10 kts | 262° |
| 2026-05-09 05:36 | 22.57524 | 120.33587 | 43 ft | 19 kts | 313° |
| 2026-05-09 05:36 | 22.57635 | 120.33506 | 43 ft | 19 kts | 345° |
| 2026-05-09 05:36 | 22.57737 | 120.33537 | 43 ft | 16 kts | 58° |
| 2026-05-09 05:36 | 22.57751 | 120.33659 | 43 ft | 22 kts | 91° |
| 2026-05-09 05:37 | 22.57736 | 120.34025 | 43 ft | 89 kts | 92° |
| 2026-05-09 05:37 | 22.57708 | 120.35012 | 43 ft | 170 kts | 93° |
| 2026-05-09 05:37 | 22.57595 | 120.36480 | 326 ft | 208 kts | 94° |
| 2026-05-09 05:37 | 22.57542 | 120.38106 | 1032 ft | 222 kts | 91° |
| 2026-05-09 05:38 | 22.57079 | 120.39670 | 1989 ft | 221 kts | 129° |
| 2026-05-09 05:38 | 22.55792 | 120.40517 | 2897 ft | 224 kts | 170° |
| 2026-05-09 05:38 | 22.54274 | 120.40242 | 3715 ft | 226 kts | 212° |
| 2026-05-09 05:38 | 22.53139 | 120.39085 | 4527 ft | 226 kts | 224° |
| 2026-05-09 05:39 | 22.52376 | 120.38456 | 4932 ft | 229 kts | 210° |
| 2026-05-09 05:39 | 22.50988 | 120.37585 | 5740 ft | 231 kts | 211° |
| 2026-05-09 05:39 | 22.49632 | 120.36648 | 6649 ft | 231 kts | 213° |
| 2026-05-09 05:39 | 22.48281 | 120.35693 | 7432 ft | 235 kts | 214° |
| 2026-05-09 05:40 | 22.46908 | 120.34717 | 8266 ft | 233 kts | 217° |
| 2026-05-09 05:40 | 22.45820 | 120.33424 | 8964 ft | 236 kts | 247° |
| 2026-05-09 05:40 | 22.45510 | 120.31724 | 9749 ft | 241 kts | 273° |
| 2026-05-09 05:40 | 22.45975 | 120.29899 | 10018 ft | 267 kts | 294° |
| 2026-05-09 05:41 | 22.47069 | 120.27569 | 10293 ft | 303 kts | 296° |
| 2026-05-09 05:41 | 22.49162 | 120.23156 | 10999 ft | 354 kts | 296° |
| 2026-05-09 05:41 | 22.51803 | 120.18510 | 12568 ft | 370 kts | 317° |
| 2026-05-09 05:41 | 22.56544 | 120.16255 | 14524 ft | 388 kts | 352° |
| 2026-05-09 05:42 | 22.62040 | 120.16511 | 16034 ft | 404 kts | 2° |
| 2026-05-09 05:42 | 22.67736 | 120.17046 | 17686 ft | 416 kts | 2° |
| 2026-05-09 05:42 | 22.73529 | 120.17546 | 18600 ft | 419 kts | 1° |
| 2026-05-09 05:42 | 22.79286 | 120.17998 | 19020 ft | 425 kts | 1° |
| 2026-05-09 05:43 | 22.85305 | 120.18452 | 19015 ft | 437 kts | 1° |
| 2026-05-09 05:43 | 22.91380 | 120.18915 | 19011 ft | 438 kts | 1° |
| 2026-05-09 05:43 | 22.97479 | 120.19378 | 19002 ft | 440 kts | 1° |
| 2026-05-09 05:43 | 23.03594 | 120.19844 | 19000 ft | 441 kts | 1° |
| 2026-05-09 05:44 | 23.09710 | 120.20310 | 19001 ft | 441 kts | 1° |
| 2026-05-09 05:44 | 23.15827 | 120.20809 | 19007 ft | 442 kts | 2° |
| 2026-05-09 05:44 | 23.21948 | 120.21543 | 18990 ft | 442 kts | 3° |
| 2026-05-09 05:44 | 23.28066 | 120.22320 | 18985 ft | 442 kts | 3° |
| 2026-05-09 05:45 | 23.34166 | 120.23067 | 18981 ft | 441 kts | 3° |
| 2026-05-09 05:45 | 23.40259 | 120.23797 | 18985 ft | 440 kts | 3° |
| 2026-05-09 05:45 | 23.46361 | 120.24526 | 18988 ft | 439 kts | 2° |
| 2026-05-09 05:45 | 23.52419 | 120.25251 | 18988 ft | 438 kts | 2° |
| 2026-05-09 05:46 | 23.58492 | 120.25980 | 18989 ft | 438 kts | 2° |
| 2026-05-09 05:46 | 23.64549 | 120.26707 | 18994 ft | 437 kts | 2° |
| 2026-05-09 05:46 | 23.70589 | 120.27453 | 18998 ft | 438 kts | 5° |
| 2026-05-09 05:46 | 23.76426 | 120.29177 | 18989 ft | 442 kts | 15° |
| 2026-05-09 05:47 | 23.82246 | 120.31358 | 19005 ft | 442 kts | 15° |
| 2026-05-09 05:47 | 23.88077 | 120.33486 | 19009 ft | 442 kts | 14° |
| 2026-05-09 05:47 | 23.93941 | 120.35546 | 19007 ft | 443 kts | 13° |
| 2026-05-09 05:47 | 23.99825 | 120.37585 | 19008 ft | 443 kts | 13° |
| 2026-05-09 05:48 | 24.05687 | 120.39615 | 19013 ft | 443 kts | 13° |
| 2026-05-09 05:48 | 24.11587 | 120.41663 | 19019 ft | 443 kts | 13° |
| 2026-05-09 05:48 | 24.17457 | 120.43704 | 19023 ft | 443 kts | 13° |
| 2026-05-09 05:48 | 24.23343 | 120.45753 | 19022 ft | 443 kts | 13° |
| 2026-05-09 05:49 | 24.29186 | 120.47789 | 18518 ft | 443 kts | 13° |
| 2026-05-09 05:49 | 24.35032 | 120.49829 | 17209 ft | 435 kts | 13° |
| 2026-05-09 05:49 | 24.40718 | 120.51818 | 16064 ft | 422 kts | 13° |
| 2026-05-09 05:49 | 24.46255 | 120.53754 | 15009 ft | 411 kts | 13° |
| 2026-05-09 05:50 | 24.51642 | 120.55636 | 13992 ft | 402 kts | 13° |
| 2026-05-09 05:50 | 24.56930 | 120.57486 | 12897 ft | 394 kts | 13° |
| 2026-05-09 05:50 | 24.62118 | 120.59303 | 11861 ft | 386 kts | 13° |
| 2026-05-09 05:50 | 24.66873 | 120.61014 | 11203 ft | 333 kts | 17° |
| 2026-05-09 05:51 | 24.69553 | 120.63067 | 10361 ft | 325 kts | 38° |
| 2026-05-09 05:51 | 24.71227 | 120.64754 | 9930 ft | 327 kts | 39° |
| 2026-05-09 05:51 | 24.72871 | 120.66421 | 9601 ft | 325 kts | 40° |
| 2026-05-09 05:51 | 24.74533 | 120.68093 | 9299 ft | 321 kts | 39° |
| 2026-05-09 05:52 | 24.76176 | 120.69731 | 8955 ft | 319 kts | 39° |
| 2026-05-09 05:52 | 24.77824 | 120.71364 | 8588 ft | 317 kts | 39° |
| 2026-05-09 05:52 | 24.79462 | 120.72984 | 8259 ft | 316 kts | 39° |
| 2026-05-09 05:52 | 24.81103 | 120.74602 | 7872 ft | 317 kts | 39° |
| 2026-05-09 05:53 | 24.82746 | 120.76222 | 7523 ft | 317 kts | 40° |
| 2026-05-09 05:53 | 24.84389 | 120.77839 | 7160 ft | 317 kts | 40° |
| 2026-05-09 05:53 | 24.86029 | 120.79457 | 6922 ft | 314 kts | 40° |
| 2026-05-09 05:53 | 24.87646 | 120.81051 | 6685 ft | 311 kts | 41° |
| 2026-05-09 05:54 | 24.89270 | 120.82652 | 6254 ft | 315 kts | 40° |
| 2026-05-09 05:54 | 24.90830 | 120.84342 | 5695 ft | 315 kts | 54° |
| 2026-05-09 05:54 | 24.91711 | 120.86527 | 5283 ft | 312 kts | 80° |
| 2026-05-09 05:54 | 24.91809 | 120.88873 | 5053 ft | 303 kts | 96° |
| 2026-05-09 05:55 | 24.91674 | 120.91161 | 4822 ft | 297 kts | 96° |
| 2026-05-09 05:55 | 24.91551 | 120.93399 | 4676 ft | 288 kts | 95° |
| 2026-05-09 05:55 | 24.91442 | 120.95565 | 4587 ft | 278 kts | 96° |
| 2026-05-09 05:55 | 24.91341 | 120.97645 | 4519 ft | 267 kts | 96° |
| 2026-05-09 05:56 | 24.91266 | 120.99650 | 4421 ft | 255 kts | 89° |
| 2026-05-09 05:56 | 24.91760 | 121.01476 | 4312 ft | 248 kts | 60° |
| 2026-05-09 05:56 | 24.92728 | 121.02996 | 4256 ft | 237 kts | 54° |
| 2026-05-09 05:56 | 24.93750 | 121.04368 | 4030 ft | 235 kts | 52° |
| 2026-05-09 05:57 | 24.94821 | 121.05733 | 3754 ft | 235 kts | 52° |
| 2026-05-09 05:57 | 24.95895 | 121.07093 | 3448 ft | 236 kts | 52° |
| 2026-05-09 05:57 | 24.96969 | 121.08455 | 3142 ft | 233 kts | 53° |
| 2026-05-09 05:57 | 24.97984 | 121.09743 | 2822 ft | 208 kts | 53° |
| 2026-05-09 05:58 | 24.98889 | 121.10897 | 2564 ft | 192 kts | 54° |
| 2026-05-09 05:58 | 24.99729 | 121.11966 | 2349 ft | 177 kts | 53° |
| 2026-05-09 05:58 | 25.00501 | 121.12953 | 2140 ft | 162 kts | 52° |
| 2026-05-09 05:58 | 25.01200 | 121.13844 | 1899 ft | 147 kts | 52° |
| 2026-05-09 05:59 | 25.01822 | 121.14634 | 1722 ft | 125 kts | 52° |
| 2026-05-09 05:59 | 25.02379 | 121.15345 | 1583 ft | 128 kts | 53° |
| 2026-05-09 05:59 | 25.02981 | 121.16113 | 1415 ft | 131 kts | 53° |
| 2026-05-09 05:59 | 25.03554 | 121.16843 | 1227 ft | 124 kts | 53° |
| 2026-05-09 06:00 | 25.03932 | 121.17326 | 1115 ft | 121 kts | 52° |
| 2026-05-09 06:00 | 25.04657 | 121.18250 | 936 ft | 121 kts | 49° |
| 2026-05-09 06:00 | 25.05225 | 121.18972 | 751 ft | 127 kts | 47° |
| 2026-05-09 06:00 | 25.05807 | 121.19708 | 588 ft | 128 kts | 48° |
| 2026-05-09 06:01 | 25.06381 | 121.20448 | 406 ft | 125 kts | 47° |
| 2026-05-09 06:01 | 25.06943 | 121.21162 | 236 ft | 124 kts | 47° |
| 2026-05-09 06:01 | 25.07511 | 121.21886 | 114 ft | 122 kts | 47° |
| 2026-05-09 06:01 | 25.08005 | 121.22507 | 107 ft | 85 kts | 49° |
| 2026-05-09 06:02 | 25.08209 | 121.22765 | 106 ft | 49 kts | 49° |
| 2026-05-09 06:02 | 25.08321 | 121.22908 | 108 ft | 11 kts | 49° |